Time;durP1;ratioP1;P1;durP2;ratioP2;P2;SDS_P1;SDS_P2;PMS_P1;PMS_P2;Temp;Humidity;BMP_temperature;BMP_pressure;BME280_temperature;BME280_humidity;BME280_pressure;Samples;Min_cycle;Max_cycle;Signal;HPM_P1;HPM_P2
2022/03/12 00:01:06;;;;;;;29.02;15.48;;;;;;;9.24;40.54;101132.16;5072843;28;20456;-69
2022/03/12 00:03:32;;;;;;;28.35;16.77;;;;;;;9.21;40.79;101129.47;5072522;28;20025;-69
2022/03/12 00:05:59;;;;;;;29.70;17.20;;;;;;;9.22;40.68;101135.66;5072805;28;20095;-69
2022/03/12 00:08:46;;;;;;;29.58;16.10;;;;;;;9.23;40.65;101135.69;5072629;28;20070;-73
2022/03/12 00:11:18;;;;;;;30.58;16.70;;;;;;;9.23;40.76;101132.13;5068866;28;20476;-73
2022/03/12 00:13:44;;;;;;;30.25;17.88;;;;;;;9.22;40.99;101146.22;5069622;28;20062;-72
2022/03/12 00:16:14;;;;;;;28.92;16.77;;;;;;;9.21;40.96;101133.88;5072478;28;20028;-73
2022/03/12 00:18:42;;;;;;;28.67;16.77;;;;;;;9.22;40.99;101139.19;5068359;28;20124;-73
2022/03/12 00:21:10;;;;;;;28.70;16.67;;;;;;;9.22;41.30;101140.94;5072396;28;20024;-72
2022/03/12 00:23:36;;;;;;;30.50;17.20;;;;;;;9.23;41.26;101142.69;5072313;28;20475;-72
2022/03/12 00:26:01;;;;;;;28.98;17.00;;;;;;;9.21;41.36;101139.16;5072288;28;20107;-70
2022/03/12 00:28:27;;;;;;;29.88;17.17;;;;;;;9.20;41.77;101145.28;5072372;28;20029;-72
2022/03/12 00:30:53;;;;;;;29.95;17.05;;;;;;;9.17;42.12;101153.16;5072270;28;20040;-72
2022/03/12 00:33:20;;;;;;;31.15;16.70;;;;;;;9.17;41.76;101154.03;5072177;28;20032;-70
2022/03/12 00:35:48;;;;;;;28.90;16.02;;;;;;;9.18;42.18;101154.94;5072249;28;20051;-71
2022/03/12 00:38:14;;;;;;;28.60;16.83;;;;;;;9.20;41.84;101159.38;5072312;28;20443;-72
2022/03/12 00:40:40;;;;;;;28.52;17.00;;;;;;;9.22;41.77;101167.31;5072199;28;20024;-72
2022/03/12 00:43:06;;;;;;;29.42;16.75;;;;;;;9.22;41.83;101156.75;5072638;28;20024;-72
2022/03/12 00:45:32;;;;;;;27.98;15.93;;;;;;;9.23;42.78;101163.78;5072375;28;20021;-71
2022/03/12 00:47:57;;;;;;;30.63;16.75;;;;;;;9.10;43.31;101161.84;5074952;28;20025;-72
2022/03/12 00:50:22;;;;;;;29.20;16.50;;;;;;;9.10;43.53;101168.03;5076262;28;20028;-70
2022/03/12 00:52:48;;;;;;;30.20;16.95;;;;;;;9.07;44.15;101174.13;5075867;28;20090;-70
2022/03/12 00:55:13;;;;;;;29.83;16.80;;;;;;;9.08;44.43;101162.69;5076049;28;20021;-71
2022/03/12 00:57:38;;;;;;;30.85;17.00;;;;;;;9.04;44.80;101166.16;5075904;28;20050;-69
2022/03/12 01:00:11;;;;;;;29.48;16.98;;;;;;;9.02;45.48;101165.25;5076053;28;20115;-72
2022/03/12 01:02:37;;;;;;;30.23;17.08;;;;;;;9.03;45.21;101166.16;5075574;28;20424;-69
2022/03/12 01:05:02;;;;;;;30.80;17.65;;;;;;;9.06;45.04;101167.06;5075969;28;20027;-70
2022/03/12 01:07:27;;;;;;;29.50;17.27;;;;;;;9.10;45.42;101161.84;5074298;28;20041;-69
2022/03/12 01:09:53;;;;;;;28.85;17.00;;;;;;;9.13;45.61;101170.69;5076043;28;20020;-70
2022/03/12 01:12:19;;;;;;;31.33;17.35;;;;;;;9.18;45.40;101161.09;5075439;28;20071;-70
2022/03/12 01:14:44;;;;;;;30.48;16.92;;;;;;;9.18;45.91;101165.50;5074125;28;20472;-71
2022/03/12 01:17:09;;;;;;;28.65;16.80;;;;;;;9.19;45.64;101172.53;5076012;28;20021;-69
2022/03/12 01:19:35;;;;;;;29.40;17.33;;;;;;;9.18;46.13;101173.41;5075399;28;20029;-70
2022/03/12 01:22:04;;;;;;;30.10;16.95;;;;;;;9.10;46.51;101173.28;5075226;28;20024;-71
2022/03/12 01:24:30;;;;;;;29.00;17.48;;;;;;;8.99;47.90;101175.75;5075718;28;20074;-69
2022/03/12 01:26:56;;;;;;;30.00;17.25;;;;;;;8.97;48.38;101174.84;5075396;28;20103;-70
2022/03/12 01:29:22;;;;;;;29.13;17.52;;;;;;;8.98;48.13;101181.00;5075262;28;20055;-72
2022/03/12 01:31:47;;;;;;;30.50;17.30;;;;;;;8.90;49.41;101183.50;5075289;28;20021;-69
2022/03/12 01:34:13;;;;;;;30.30;17.63;;;;;;;8.76;50.20;101182.38;5075125;28;20025;-69
2022/03/12 01:36:38;;;;;;;31.38;18.23;;;;;;;8.62;51.84;101188.31;5074911;28;20074;-69
2022/03/12 01:39:04;;;;;;;30.05;18.17;;;;;;;8.60;51.90;101197.03;5073532;28;20044;-69
2022/03/12 01:41:31;;;;;;;30.30;18.27;;;;;;;8.54;52.30;101195.19;5075201;28;20031;-69
2022/03/12 01:43:59;;;;;;;32.63;18.38;;;;;;;8.39;54.67;101193.13;5075092;28;20043;-69
2022/03/12 01:46:32;;;;;;;29.00;17.80;;;;;;;8.21;55.32;101188.38;5075255;28;20016;-69
2022/03/12 01:48:59;;;;;;;;;;;;;;;8.19;54.58;101196.25;5075274;28;20056;-69
2022/03/12 01:51:26;;;;;;;31.98;18.10;;;;;;;8.03;57.51;101183.63;5081643;28;20009;-69
2022/03/12 01:53:52;;;;;;;31.42;18.70;;;;;;;7.82;60.49;101191.97;5074964;28;20478;-69
2022/03/12 01:56:18;;;;;;;32.80;18.75;;;;;;;7.48;62.41;101184.25;5074659;28;20029;-68
2022/03/12 01:58:50;;;;;;;29.83;17.65;;;;;;;7.39;61.43;101196.31;5073484;28;20071;-69
2022/03/12 02:01:15;;;;;;;32.07;19.33;;;;;;;7.35;63.53;101189.19;5071353;28;20033;-69
2022/03/12 02:03:40;;;;;;;29.67;17.42;;;;;;;7.57;61.27;101188.84;5074844;28;20111;-69
2022/03/12 02:06:06;;;;;;;31.63;19.42;;;;;;;7.66;61.77;101189.03;5074663;28;20040;-69
2022/03/12 02:08:31;;;;;;;30.90;18.10;;;;;;;7.83;60.57;101185.84;5074861;28;20468;-69
2022/03/12 02:10:58;;;;;;;30.10;18.38;;;;;;;7.92;59.67;101180.81;5074455;28;20063;-70
2022/03/12 02:13:25;;;;;;;30.38;18.52;;;;;;;8.01;58.73;101180.97;5074378;28;20490;-69
2022/03/12 02:15:58;;;;;;;29.65;18.40;;;;;;;8.08;58.05;101186.34;5074551;28;20032;-69
2022/03/12 02:18:23;;;;;;;30.75;17.88;;;;;;;8.15;57.19;101185.63;5074335;28;20044;-69
2022/03/12 02:20:48;;;;;;;31.25;18.73;;;;;;;8.21;57.06;101185.75;5074149;28;20056;-69
2022/03/12 02:23:13;;;;;;;29.73;17.25;;;;;;;8.26;57.10;101193.75;5074453;28;20028;-69
2022/03/12 02:25:39;;;;;;;29.00;17.42;;;;;;;8.31;56.53;101185.06;5074341;28;20024;-69
2022/03/12 02:28:15;;;;;;;30.55;17.63;;;;;;;8.42;56.53;101192.28;5074062;28;20387;-69
2022/03/12 02:30:55;;;;;;;31.13;18.15;;;;;;;8.41;57.23;101186.13;5070194;28;20028;-69
2022/03/12 02:33:25;;;;;;;30.33;17.23;;;;;;;8.41;57.18;101180.84;5071331;28;20055;-69
2022/03/12 02:35:53;;;;;;;28.95;17.45;;;;;;;8.39;57.98;101193.13;5074110;28;20024;-69
2022/03/12 02:38:20;;;;;;;28.13;16.38;;;;;;;8.43;57.48;101199.31;5074009;28;20364;-69
2022/03/12 02:40:49;;;;;;;29.50;17.23;;;;;;;8.42;57.81;101203.72;5074118;28;20023;-69
2022/03/12 02:43:23;;;;;;;29.35;17.15;;;;;;;8.46;57.11;101196.78;5073977;28;20081;-69
2022/03/12 02:45:51;;;;;;;29.13;17.45;;;;;;;8.45;57.32;101197.66;5073618;28;20453;-69
2022/03/12 02:48:17;;;;;;;29.88;16.88;;;;;;;8.50;57.42;101210.06;5073848;28;20031;-69
2022/03/12 02:50:43;;;;;;;29.38;17.08;;;;;;;8.49;57.48;101216.19;5074003;28;20387;-69
2022/03/12 02:53:08;;;;;;;29.85;17.92;;;;;;;8.46;57.91;101208.22;5073863;28;20567;-69
2022/03/12 02:55:35;;;;;;;30.08;18.10;;;;;;;8.44;57.50;101206.38;5073767;28;20020;-69
2022/03/12 02:58:00;;;;;;;30.13;17.63;;;;;;;8.42;57.50;101215.97;5073622;28;20115;-69
2022/03/12 03:00:27;;;;;;;30.13;18.15;;;;;;;8.41;57.44;101220.38;5073375;28;20562;-69
2022/03/12 03:02:56;;;;;;;30.00;17.75;;;;;;;8.38;56.84;101217.69;5073387;28;20024;-69
2022/03/12 03:05:41;;;;;;;29.63;17.35;;;;;;;8.33;58.29;101214.97;5073807;28;20392;-69
2022/03/12 03:08:09;;;;;;;29.85;17.67;;;;;;;8.29;58.46;101218.41;5073539;28;20025;-69
2022/03/12 03:10:38;;;;;;;30.27;17.25;;;;;;;8.21;58.73;101214.72;5073081;28;20066;-69
2022/03/12 03:13:19;;;;;;;30.00;17.60;;;;;;;8.07;59.77;101214.44;5073063;28;20125;-69
2022/03/12 03:15:49;;;;;;;30.02;17.00;;;;;;;7.94;60.98;101212.41;5069735;28;20073;-69
2022/03/12 03:18:17;;;;;;;28.92;17.05;;;;;;;7.86;61.44;101225.41;5069734;28;20028;-69
2022/03/12 03:20:44;;;;;;;29.25;17.20;;;;;;;7.79;62.19;101231.38;5073315;28;20056;-69
2022/03/12 03:23:10;;;;;;;29.50;16.92;;;;;;;7.73;62.63;101226.00;5073383;28;20028;-69
2022/03/12 03:25:36;;;;;;;28.73;17.23;;;;;;;7.66;63.68;101228.50;5073036;28;20360;-69
2022/03/12 03:28:01;;;;;;;29.50;17.45;;;;;;;7.60;64.26;101231.00;5073017;28;20475;-69
2022/03/12 03:30:34;;;;;;;28.40;16.83;;;;;;;7.59;65.67;101228.34;5072878;28;20115;-69
2022/03/12 03:33:01;;;;;;;27.65;16.38;;;;;;;7.52;67.05;101232.56;5072785;28;20067;-69
2022/03/12 03:35:27;;;;;;;28.90;16.33;;;;;;;7.46;68.19;101232.41;5073117;28;20039;-69
2022/03/12 03:37:52;;;;;;;27.63;15.95;;;;;;;7.41;68.89;101234.94;5073028;28;20024;-69
2022/03/12 03:40:17;;;;;;;27.48;16.27;;;;;;;7.35;69.84;101239.16;5073025;28;20371;-69
2022/03/12 03:42:43;;;;;;;28.38;16.70;;;;;;;7.29;70.27;101240.78;5072818;28;20459;-69
2022/03/12 03:45:08;;;;;;;27.45;16.55;;;;;;;7.24;70.77;101245.06;5072925;28;20083;-72
2022/03/12 03:47:34;;;;;;;28.00;15.95;;;;;;;7.22;71.03;101243.22;5072874;28;20086;-72
2022/03/12 03:49:59;;;;;;;28.33;16.38;;;;;;;7.19;71.23;101244.03;5073017;28;20451;-72
2022/03/12 03:52:24;;;;;;;28.60;16.52;;;;;;;7.17;71.03;101248.38;5072691;28;20054;-72
2022/03/12 03:54:50;;;;;;;28.20;16.35;;;;;;;7.13;71.76;101249.16;5072893;28;20025;-70
2022/03/12 03:57:17;;;;;;;29.05;16.52;;;;;;;7.07;72.94;101251.63;5072471;28;20028;-71
2022/03/12 03:59:42;;;;;;;27.30;15.20;;;;;;;7.05;74.23;101256.84;5072790;28;20036;-71
2022/03/12 04:02:08;;;;;;;28.05;15.80;;;;;;;7.03;75.26;101255.03;5073040;28;20024;-71
2022/03/12 04:04:35;;;;;;;26.35;14.68;;;;;;;7.01;76.22;101257.63;5072826;28;20028;-70
2022/03/12 04:07:01;;;;;;;26.77;14.52;;;;;;;6.95;78.03;101250.47;5072858;28;20357;-70
2022/03/12 04:09:27;;;;;;;25.48;14.35;;;;;;;6.98;79.93;101260.19;5072541;28;20035;-72
2022/03/12 04:11:52;;;;;;;26.15;14.82;;;;;;;6.94;82.62;101263.56;5071067;28;20041;-71
2022/03/12 04:14:18;;;;;;;25.63;13.88;;;;;;;6.89;84.41;101266.09;5072498;28;20070;-69
2022/03/12 04:16:44;;;;;;;25.60;13.18;;;;;;;6.86;86.42;101260.75;5072833;28;20489;-70
2022/03/12 04:19:10;;;;;;;24.63;12.23;;;;;;;6.85;88.22;101266.84;5072406;28;20024;-69
2022/03/12 04:21:35;;;;;;;24.35;12.57;;;;;;;6.79;91.66;101279.84;5072744;28;20048;-69
2022/03/12 04:24:01;;;;;;;24.75;13.05;;;;;;;6.79;96.86;101271.94;5076935;28;20032;-69
2022/03/12 04:26:27;;;;;;;25.00;12.80;;;;;;;6.79;98.96;101269.31;5076397;28;20471;-69
2022/03/12 04:28:53;;;;;;;24.95;12.50;;;;;;;6.82;100.00;101271.16;5076256;28;20020;-69
2022/03/12 04:31:19;;;;;;;25.10;12.23;;;;;;;6.80;100.00;101273.72;5076660;28;20046;-69
2022/03/12 04:33:45;;;;;;;24.05;11.77;;;;;;;6.77;100.00;101273.63;5076239;28;20460;-69
2022/03/12 04:36:12;;;;;;;24.23;12.30;;;;;;;6.74;100.00;101276.19;5072379;28;20036;-69
2022/03/12 04:38:38;;;;;;;23.55;12.00;;;;;;;6.71;100.00;101278.72;5076377;28;20090;-69
2022/03/12 04:41:04;;;;;;;24.08;11.55;;;;;;;6.72;100.00;101276.13;5076122;28;20459;-69
2022/03/12 04:43:30;;;;;;;22.63;11.23;;;;;;;6.72;100.00;101270.88;5076218;28;20016;-69
2022/03/12 04:45:58;;;;;;;23.67;11.63;;;;;;;6.75;100.00;101275.34;5076321;28;20024;-69
2022/03/12 04:48:23;;;;;;;23.58;12.05;;;;;;;6.72;100.00;101272.63;5075998;28;20021;-69
2022/03/12 04:50:50;;;;;;;23.55;11.88;;;;;;;6.75;100.00;101277.97;5076408;28;20525;-69
2022/03/12 04:53:16;;;;;;;23.63;11.90;;;;;;;6.75;100.00;101275.34;5076086;28;20024;-69
2022/03/12 04:55:44;;;;;;;24.33;12.45;;;;;;;6.75;100.00;101277.97;5075882;28;20383;-69
2022/03/12 04:58:12;;;;;;;24.35;12.27;;;;;;;6.73;100.00;101282.31;5075760;28;20036;-69
2022/03/12 05:00:39;;;;;;;24.10;12.25;;;;;;;6.70;100.00;101284.81;5073910;28;20391;-69
2022/03/12 05:03:12;;;;;;;23.77;12.27;;;;;;;6.67;100.00;101292.63;5075755;28;20051;-69
2022/03/12 05:05:39;;;;;;;;;;;;;;;6.61;100.00;101291.63;5076214;28;20383;-69
2022/03/12 05:08:06;;;;;;;24.52;12.20;;;;;;;6.69;100.00;101293.56;5076151;28;19919;-69
2022/03/12 05:10:32;;;;;;;23.23;11.82;;;;;;;6.66;100.00;101291.75;5075788;28;20089;-69
2022/03/12 05:13:00;;;;;;;26.98;12.40;;;;;;;6.65;100.00;101287.31;5075220;28;20127;-67
2022/03/12 05:15:28;;;;;;;24.38;12.13;;;;;;;6.58;100.00;101285.38;5075984;28;20119;-68
2022/03/12 05:17:54;;;;;;;24.40;12.23;;;;;;;6.55;100.00;101296.72;5075547;28;20027;-68
2022/03/12 05:20:29;;;;;;;24.33;11.95;;;;;;;6.45;100.00;101303.44;5075506;28;20364;-68
2022/03/12 05:22:54;;;;;;;24.00;12.82;;;;;;;6.43;100.00;101302.47;5075572;28;20024;-68
2022/03/12 05:25:20;;;;;;;24.30;12.35;;;;;;;6.42;100.00;101311.22;5075280;28;20029;-67
2022/03/12 05:27:48;;;;;;;24.42;13.05;;;;;;;6.41;100.00;101308.56;5075301;28;20063;-67
2022/03/12 05:30:13;;;;;;;24.88;13.13;;;;;;;6.39;100.00;101315.50;5071556;28;20028;-68
2022/03/12 05:32:39;;;;;;;24.85;12.93;;;;;;;6.38;100.00;101321.59;5075069;28;20021;-68
2022/03/12 05:35:06;;;;;;;25.42;13.10;;;;;;;6.38;100.00;101313.72;5075444;28;20028;-68
2022/03/12 05:37:32;;;;;;;24.58;13.38;;;;;;;6.36;100.00;101321.53;5075182;28;20051;-67
2022/03/12 05:39:57;;;;;;;25.15;13.73;;;;;;;6.35;100.00;101316.25;5074976;28;20020;-67
2022/03/12 05:42:22;;;;;;;24.45;12.77;;;;;;;6.27;100.00;101324.78;5074874;28;20024;-70
2022/03/12 05:44:50;;;;;;;24.95;13.13;;;;;;;6.30;100.00;101336.25;5075136;28;20035;-70
2022/03/12 05:47:17;;;;;;;24.17;12.90;;;;;;;6.24;100.00;101337.81;5074971;28;20024;-71
2022/03/12 05:49:42;;;;;;;24.90;13.15;;;;;;;6.22;100.00;101339.53;5070895;28;20112;-71
2022/03/12 05:52:09;;;;;;;24.75;13.05;;;;;;;6.22;100.00;101341.28;5075196;28;20116;-71
2022/03/12 05:54:35;;;;;;;24.73;13.27;;;;;;;6.23;100.00;101337.78;5074729;28;20024;-71
2022/03/12 05:57:00;;;;;;;25.92;13.77;;;;;;;6.19;100.00;101343.78;5074610;28;20388;-72
2022/03/12 05:59:26;;;;;;;25.63;13.90;;;;;;;6.15;100.00;101340.19;5074830;28;20039;-68
2022/03/12 06:01:51;;;;;;;24.58;13.10;;;;;;;6.14;100.00;101346.25;5074734;28;20425;-69
2022/03/12 06:04:26;;;;;;;25.73;13.88;;;;;;;6.10;100.00;101344.38;5074781;28;20039;-70
2022/03/12 06:06:53;;;;;;;26.67;14.10;;;;;;;6.06;100.00;101338.16;5075006;28;20073;-71
2022/03/12 06:09:18;;;;;;;25.23;14.10;;;;;;;6.05;100.00;101340.75;5074485;28;20032;-71
2022/03/12 06:11:44;;;;;;;25.15;13.10;;;;;;;5.94;100.00;101341.28;5074174;28;20056;-69
2022/03/12 06:14:14;;;;;;;24.85;13.50;;;;;;;5.92;100.00;101340.31;5074572;28;20027;-69
2022/03/12 06:16:39;;;;;;;25.85;14.48;;;;;;;5.85;100.00;101347.97;5074357;28;20020;-71
2022/03/12 06:19:04;;;;;;;26.00;14.30;;;;;;;5.80;100.00;101347.81;5074458;28;20387;-71
2022/03/12 06:21:30;;;;;;;25.95;14.38;;;;;;;5.78;100.00;101344.22;5074467;28;20460;-72
2022/03/12 06:23:56;;;;;;;26.10;14.02;;;;;;;5.76;100.00;101348.56;5074247;28;20021;-69
2022/03/12 06:26:22;;;;;;;27.33;14.95;;;;;;;5.79;100.00;101353.03;5074024;28;20178;-68
2022/03/12 06:28:48;;;;;;;26.13;14.70;;;;;;;5.86;100.00;101355.88;5074501;28;20071;-68
2022/03/12 06:31:13;;;;;;;26.50;14.93;;;;;;;5.91;100.00;101358.63;5074087;28;20027;-68
2022/03/12 06:33:40;;;;;;;26.60;14.18;;;;;;;6.02;100.00;101361.66;5074096;28;20115;-68
2022/03/12 06:36:07;;;;;;;25.92;14.45;;;;;;;6.10;100.00;101361.03;5074201;28;20044;-68
2022/03/12 06:38:35;;;;;;;25.85;14.05;;;;;;;6.24;100.00;101368.44;5073835;28;20029;-69
2022/03/12 06:41:01;;;;;;;26.85;13.95;;;;;;;6.27;100.00;101363.28;5073802;28;20099;-68
2022/03/12 06:43:28;;;;;;;24.73;13.60;;;;;;;6.33;100.00;101370.47;5074121;28;20109;-68
2022/03/12 06:45:55;;;;;;;24.73;13.07;;;;;;;6.39;100.00;101368.94;5073220;28;20028;-68
2022/03/12 06:48:23;;;;;;;24.27;12.63;;;;;;;6.49;100.00;101380.56;5073528;28;20025;-68
2022/03/12 06:50:48;;;;;;;24.58;12.70;;;;;;;6.60;100.00;101381.78;5073872;28;20107;-68
2022/03/12 06:53:14;;;;;;;23.90;12.82;;;;;;;6.69;100.00;101383.78;5073671;28;20030;-68
2022/03/12 06:55:39;;;;;;;23.52;12.07;;;;;;;6.78;100.00;101378.78;5073467;28;20027;-68
2022/03/12 06:58:05;;;;;;;23.60;12.30;;;;;;;6.89;100.00;101379.09;5073502;28;20037;-68
2022/03/12 07:00:32;;;;;;;23.60;11.88;;;;;;;6.98;100.00;101381.97;5073140;28;20071;-68
2022/03/12 07:02:58;;;;;;;23.95;12.60;;;;;;;7.09;100.00;101392.81;5073446;28;20024;-68
2022/03/12 07:05:25;;;;;;;24.42;12.20;;;;;;;7.15;100.00;101392.09;5073792;28;20413;-68
2022/03/12 07:07:51;;;;;;;23.95;12.20;;;;;;;7.21;100.00;101386.97;5073228;28;20032;-68
2022/03/12 07:10:17;;;;;;;24.60;12.25;;;;;;;7.25;100.00;101386.22;5073259;28;20024;-68
2022/03/12 07:12:44;;;;;;;23.73;11.95;;;;;;;7.30;100.00;101394.22;5068819;28;20051;-68
2022/03/12 07:15:10;;;;;;;22.95;11.48;;;;;;;7.35;100.00;101397.84;5071775;28;20037;-68
2022/03/12 07:17:36;;;;;;;24.02;12.23;;;;;;;7.37;100.00;101401.44;5072972;28;20036;-68
2022/03/12 07:20:03;;;;;;;23.45;11.90;;;;;;;7.40;100.00;101401.50;5073160;28;20029;-69
2022/03/12 07:22:29;;;;;;;22.83;11.52;;;;;;;7.44;100.00;101405.09;5073013;28;20040;-68
2022/03/12 07:24:54;;;;;;;24.45;11.98;;;;;;;7.46;100.00;101406.03;5073043;28;20459;-71
2022/03/12 07:27:20;;;;;;;23.60;12.05;;;;;;;7.52;100.00;101403.56;5073020;28;20391;-70
2022/03/12 07:29:45;;;;;;;24.10;12.02;;;;;;;7.58;100.00;101414.22;5072987;28;20024;-69
2022/03/12 07:32:11;;;;;;;24.27;12.80;;;;;;;7.64;100.00;101417.03;5072913;28;20532;-69
2022/03/12 07:34:36;;;;;;;23.30;12.18;;;;;;;7.73;100.00;101421.63;5073176;28;20054;-69
2022/03/12 07:37:02;;;;;;;24.20;12.52;;;;;;;7.77;100.00;101420.84;5072756;28;20033;-70
2022/03/12 07:39:27;;;;;;;24.58;12.52;;;;;;;7.89;100.00;101428.16;5072871;28;20032;-70
2022/03/12 07:41:53;;;;;;;22.90;11.75;;;;;;;7.97;100.00;101431.88;5072917;28;20104;-69
2022/03/12 07:44:19;;;;;;;23.42;11.98;;;;;;;8.08;100.00;101433.88;5072841;28;20020;-69
2022/03/12 07:46:45;;;;;;;24.10;12.38;;;;;;;8.20;100.00;101436.81;5072848;28;20020;-69
2022/03/12 07:49:11;;;;;;;23.17;11.57;;;;;;;8.30;100.00;101443.19;5072575;28;20077;-69
2022/03/12 07:51:36;;;;;;;23.65;11.82;;;;;;;8.41;100.00;101446.06;5072649;28;20115;-69
2022/03/12 07:54:06;;;;;;;23.60;12.27;;;;;;;8.47;100.00;101443.59;5072827;28;20031;-69
2022/03/12 07:56:34;;;;;;;23.27;11.57;;;;;;;8.54;100.00;101442.88;5071652;28;20422;-68
2022/03/12 07:58:59;;;;;;;23.08;11.93;;;;;;;8.58;100.00;101442.09;5072227;28;20064;-68
2022/03/12 08:01:24;;;;;;;24.42;12.27;;;;;;;8.62;100.00;101448.31;5072886;28;20093;-68
2022/03/12 08:03:50;;;;;;;22.98;12.07;;;;;;;8.70;100.00;101446.75;5072478;28;20100;-68
2022/03/12 08:06:16;;;;;;;23.80;11.82;;;;;;;8.78;100.00;101452.19;5072546;28;20036;-68
2022/03/12 08:08:42;;;;;;;22.92;11.27;;;;;;;8.80;100.00;101453.13;5072683;28;20029;-68
2022/03/12 08:11:28;;;;;;;23.55;11.60;;;;;;;8.84;100.00;101463.75;5072438;28;20055;-68
2022/03/12 08:14:03;;;;;;;22.75;11.55;;;;;;;8.89;100.00;101461.22;5069748;28;20038;-68
2022/03/12 08:16:30;;;;;;;23.35;11.85;;;;;;;8.99;100.00;101465.81;5072464;28;20391;-68
2022/03/12 08:18:56;;;;;;;23.30;11.55;;;;;;;9.07;100.00;101469.50;5072127;28;20032;-68
2022/03/12 08:21:21;;;;;;;23.50;11.35;;;;;;;9.17;100.00;101467.94;5072818;28;20016;-68
2022/03/12 08:23:48;;;;;;;23.40;11.40;;;;;;;9.27;100.00;101466.38;5072260;28;20379;-67
2022/03/12 08:26:13;;;;;;;23.27;10.80;;;;;;;9.46;100.00;101475.53;5068255;28;20031;-67
2022/03/12 08:28:39;;;;;;;23.33;10.80;;;;;;;9.60;100.00;101481.97;5072495;28;20527;-68
2022/03/12 08:31:05;;;;;;;22.15;9.80;;;;;;;9.79;100.00;101477.03;5072473;28;20430;-68
2022/03/12 08:33:32;;;;;;;22.77;10.25;;;;;;;9.91;100.00;101486.91;5072432;28;20016;-68
2022/03/12 08:35:58;;;;;;;22.55;10.50;;;;;;;10.02;100.00;101492.34;5072428;28;20044;-67
2022/03/12 08:38:25;;;;;;;22.42;10.32;;;;;;;10.12;100.00;101497.84;5072044;28;20035;-70
2022/03/12 08:40:51;;;;;;;23.35;10.75;;;;;;;10.20;100.00;101492.66;5072218;28;20028;-69
2022/03/12 08:43:17;;;;;;;25.20;10.93;;;;;;;10.26;100.00;101487.47;5072147;28;20390;-69
2022/03/12 08:45:42;;;;;;;23.42;10.00;;;;;;;10.32;100.00;101499.03;5071964;28;20032;-70
2022/03/12 08:48:08;;;;;;;23.20;10.43;;;;;;;10.39;100.00;101491.25;5072086;28;20145;-70
2022/03/12 08:50:34;;;;;;;21.55;9.73;;;;;;;10.48;100.00;101489.59;5072076;28;20024;-70
2022/03/12 08:52:59;;;;;;;23.52;10.07;;;;;;;10.57;100.00;101495.94;5072037;28;20468;-70
2022/03/12 08:55:25;;;;;;;25.10;9.95;;;;;;;10.77;100.00;101496.19;5072063;28;20386;-69
2022/03/12 08:57:52;;;;;;;22.15;10.10;;;;;;;10.89;100.00;101507.81;5071819;28;20094;-70
2022/03/12 09:00:19;;;;;;;22.10;9.27;;;;;;;10.91;100.00;101514.03;5071968;28;20029;-69
2022/03/12 09:02:46;;;;;;;20.25;8.10;;;;;;;11.03;99.24;101503.59;5068262;28;20028;-70
2022/03/12 09:05:13;;;;;;;20.88;7.57;;;;;;;10.96;99.25;101504.38;5072045;28;20037;-70
2022/03/12 09:07:39;;;;;;;20.90;7.20;;;;;;;11.10;99.39;101508.09;5072310;28;20025;-70
2022/03/12 09:10:05;;;;;;;20.48;6.80;;;;;;;11.17;94.41;101503.78;5075737;28;20029;-69
2022/03/12 09:12:31;;;;;;;20.80;6.97;;;;;;;11.18;93.82;101517.91;5075240;28;20040;-69
2022/03/12 09:14:57;;;;;;;20.70;6.90;;;;;;;11.22;94.95;101512.66;5075712;28;20029;-69
2022/03/12 09:17:22;;;;;;;19.60;6.68;;;;;;;11.39;93.39;101514.59;5075629;28;20383;-69
2022/03/12 09:19:48;;;;;;;20.95;6.82;;;;;;;11.41;92.01;101512.88;5075304;28;20042;-69
2022/03/12 09:22:13;;;;;;;19.77;6.85;;;;;;;11.31;92.13;101520.72;5075357;28;20434;-69
2022/03/12 09:24:40;;;;;;;21.00;6.93;;;;;;;11.32;92.58;101519.84;5075487;28;20036;-68
2022/03/12 09:27:06;;;;;;;20.45;6.53;;;;;;;11.42;90.99;101518.19;5075091;28;20448;-68
2022/03/12 09:29:32;;;;;;;19.13;6.20;;;;;;;11.52;89.80;101522.72;5075292;28;20024;-68
2022/03/12 09:31:59;;;;;;;20.75;6.55;;;;;;;11.70;89.07;101518.50;5075306;28;20025;-68
2022/03/12 09:34:24;;;;;;;19.80;5.80;;;;;;;11.79;87.86;101509.75;5075151;28;20044;-69
2022/03/12 09:36:50;;;;;;;19.40;5.80;;;;;;;11.88;86.42;101516.91;5075301;28;20060;-70
2022/03/12 09:39:15;;;;;;;19.02;6.00;;;;;;;12.01;86.47;101516.16;5075045;28;20025;-69
2022/03/12 09:41:41;;;;;;;18.75;5.60;;;;;;;12.09;84.17;101525.09;5074970;28;20406;-68
2022/03/12 09:44:07;;;;;;;18.10;5.40;;;;;;;12.19;82.03;101515.47;5075134;28;20025;-68
2022/03/12 09:46:32;;;;;;;17.83;5.00;;;;;;;12.30;80.70;101500.50;5074841;28;20031;-69
2022/03/12 09:48:58;;;;;;;19.65;5.20;;;;;;;12.47;81.86;101519.19;5074789;28;20017;-68
2022/03/12 09:51:28;;;;;;;18.00;4.78;;;;;;;12.66;78.29;101514.03;5075319;28;20039;-69
2022/03/12 09:53:54;;;;;;;17.30;4.80;;;;;;;12.56;78.53;101518.38;5074716;28;20036;-68
2022/03/12 09:56:20;;;;;;;19.67;4.97;;;;;;;12.44;78.74;101527.13;5075138;28;20024;-68
2022/03/12 09:58:45;;;;;;;18.52;4.93;;;;;;;12.33;78.13;101523.50;5074795;28;20414;-69
2022/03/12 10:01:11;;;;;;;18.85;4.50;;;;;;;12.19;77.72;101526.94;5074861;28;20105;-69
2022/03/12 10:03:38;;;;;;;17.98;4.85;;;;;;;12.11;77.93;101520.69;5074508;28;20485;-68
2022/03/12 10:06:05;;;;;;;17.52;4.53;;;;;;;12.20;77.42;101527.81;5074745;28;20039;-68
2022/03/12 10:08:31;;;;;;;18.13;4.60;;;;;;;12.44;77.04;101539.53;5074506;28;20035;-68
2022/03/12 10:10:56;;;;;;;19.65;4.95;;;;;;;12.64;77.30;101534.34;5074541;28;20033;-68
2022/03/12 10:13:22;;;;;;;17.55;4.55;;;;;;;12.85;75.53;101534.47;5074440;28;20492;-68
2022/03/12 10:15:47;;;;;;;17.98;4.40;;;;;;;13.03;74.74;101538.09;5074649;28;20043;-68
2022/03/12 10:18:13;;;;;;;17.77;4.68;;;;;;;13.26;73.84;101543.53;5074151;28;20158;-68
2022/03/12 10:20:39;;;;;;;18.77;4.70;;;;;;;13.16;72.79;101542.59;5073623;28;20151;-68
2022/03/12 10:23:05;;;;;;;18.75;4.40;;;;;;;12.77;73.27;101543.28;5074017;28;20471;-68
2022/03/12 10:25:33;;;;;;;15.80;4.30;;;;;;;12.79;73.73;101534.44;5074194;28;20024;-68
2022/03/12 10:27:58;;;;;;;18.67;4.68;;;;;;;12.52;75.71;101541.34;5074517;28;20025;-68
2022/03/12 10:30:23;;;;;;;18.40;4.65;;;;;;;12.28;75.56;101527.91;5074410;28;20017;-68
2022/03/12 10:32:50;;;;;;;16.50;4.13;;;;;;;12.27;75.47;101527.00;5074168;28;20486;-68
2022/03/12 10:35:19;;;;;;;16.40;4.47;;;;;;;12.25;75.77;101531.41;5070166;28;20309;-68
2022/03/12 10:37:46;;;;;;;18.00;4.25;;;;;;;12.62;74.82;101530.81;5073821;28;20028;-68
2022/03/12 10:40:11;;;;;;;18.45;4.35;;;;;;;12.95;74.15;101535.44;5073845;28;20032;-67
2022/03/12 10:42:44;;;;;;;19.13;4.32;;;;;;;13.66;71.80;101529.53;5073965;28;20032;-68
2022/03/12 10:45:12;;;;;;;17.55;4.30;;;;;;;14.07;69.27;101534.91;5073681;28;20099;-68
2022/03/12 10:47:46;;;;;;;16.33;4.20;;;;;;;13.97;67.28;101535.81;5073964;28;20029;-70
2022/03/12 10:50:17;;;;;;;17.52;4.00;;;;;;;14.61;66.47;101534.94;5073606;28;20026;-70
2022/03/12 10:52:49;;;;;;;18.73;4.20;;;;;;;14.73;64.76;101534.03;5074138;28;20121;-70
2022/03/12 10:55:36;;;;;;;20.42;4.60;;;;;;;14.44;66.05;101534.03;5073419;28;20016;-70
2022/03/12 10:58:21;;;;;;;16.98;4.03;;;;;;;14.47;63.70;101534.03;5071754;28;20025;-70
2022/03/12 11:00:48;;;;;;;17.42;4.30;;;;;;;14.53;64.01;101533.13;5069621;28;20052;-70
2022/03/12 11:03:16;;;;;;;16.55;3.95;;;;;;;15.38;62.96;101527.59;5073497;28;20048;-70
2022/03/12 11:05:43;;;;;;;15.98;3.90;;;;;;;15.77;58.81;101523.84;5073379;28;20089;-70
2022/03/12 11:08:14;;;;;;;18.25;4.03;;;;;;;16.32;57.71;101540.34;5073320;28;20021;-71
2022/03/12 11:10:52;;;;;;;17.20;4.18;;;;;;;17.12;55.37;101538.69;5073477;28;20988;-70
2022/03/12 11:13:44;;;;;;;15.05;3.70;;;;;;;17.20;50.98;101542.16;5069431;28;20098;-70